createdAt,value
2022-10-20T00:01:51.765Z,18.23
2022-10-20T00:04:18.443Z,17.00
2022-10-20T00:06:45.119Z,23.40
2022-10-20T00:09:12.065Z,16.23
2022-10-20T00:11:38.718Z,16.97
2022-10-20T00:14:05.831Z,15.17
2022-10-20T00:16:36.396Z,19.93
2022-10-20T00:19:03.942Z,17.00
2022-10-20T00:21:31.794Z,20.63
2022-10-20T00:24:01.898Z,16.47
2022-10-20T00:26:29.602Z,16.93
2022-10-20T00:28:56.891Z,19.43
2022-10-20T00:31:24.311Z,18.67
2022-10-20T00:33:50.987Z,19.17
2022-10-20T00:36:20.040Z,20.97
2022-10-20T00:38:46.718Z,22.33
2022-10-20T00:41:16.098Z,20.60
2022-10-20T00:43:50.897Z,23.47
2022-10-20T00:46:21.453Z,20.67
2022-10-20T00:48:58.580Z,23.10
2022-10-20T00:51:29.603Z,25.30
2022-10-20T00:54:06.646Z,19.30
2022-10-20T00:56:34.038Z,27.40
2022-10-20T00:59:03.006Z,22.97
2022-10-20T01:01:29.850Z,24.30
2022-10-20T01:03:57.083Z,22.67
2022-10-20T01:06:23.726Z,23.80
2022-10-20T01:08:52.570Z,30.00
2022-10-20T01:11:32.078Z,23.53
2022-10-20T01:14:43.467Z,22.10
2022-10-20T01:17:26.556Z,24.60
2022-10-20T01:20:01.877Z,23.43
2022-10-20T01:22:50.049Z,30.37
2022-10-20T01:25:18.105Z,24.63
2022-10-20T01:27:54.227Z,20.00
2022-10-20T01:30:22.831Z,20.90
2022-10-20T01:32:53.747Z,25.27
2022-10-20T01:35:47.017Z,22.10
2022-10-20T01:38:22.178Z,24.07
2022-10-20T01:41:00.259Z,25.87
2022-10-20T01:43:31.153Z,28.73
2022-10-20T01:45:59.871Z,23.23
2022-10-20T01:48:32.206Z,20.63
2022-10-20T01:51:00.242Z,25.23
2022-10-20T01:53:27.106Z,23.90
2022-10-20T01:55:56.362Z,23.47
2022-10-20T01:58:29.004Z,21.27
2022-10-20T02:01:02.754Z,26.93
2022-10-20T02:03:53.121Z,23.23
2022-10-20T02:06:24.917Z,21.60
2022-10-20T02:08:56.600Z,22.87
2022-10-20T02:11:28.526Z,21.27
2022-10-20T02:13:57.421Z,24.80
2022-10-20T02:16:29.537Z,25.47
2022-10-20T02:18:57.026Z,21.00
2022-10-20T02:21:23.967Z,22.67
2022-10-20T02:23:52.402Z,22.30
2022-10-20T02:26:23.406Z,22.57
2022-10-20T02:28:55.734Z,26.07
2022-10-20T02:31:22.870Z,21.60
2022-10-20T02:33:50.057Z,24.30
2022-10-20T02:36:19.403Z,25.10
2022-10-20T02:38:46.565Z,23.90
2022-10-20T02:41:13.414Z,21.50
2022-10-20T02:43:40.023Z,22.10
2022-10-20T02:46:06.738Z,23.30
2022-10-20T02:48:33.365Z,21.60
2022-10-20T02:50:59.978Z,22.20
2022-10-20T02:53:26.525Z,24.03
2022-10-20T02:55:53.085Z,23.17
2022-10-20T02:58:19.883Z,21.60
2022-10-20T03:00:46.486Z,20.87
2022-10-20T03:03:13.009Z,21.07
2022-10-20T03:05:41.800Z,21.40
2022-10-20T03:08:08.510Z,22.93
2022-10-20T03:10:35.323Z,25.53
2022-10-20T03:13:01.909Z,19.50
2022-10-20T03:15:28.450Z,17.50
2022-10-20T03:17:54.999Z,25.50
2022-10-20T03:20:21.582Z,23.43
2022-10-20T03:22:48.114Z,16.60
2022-10-20T03:25:14.957Z,21.03
2022-10-20T03:27:41.532Z,20.80
2022-10-20T03:30:08.526Z,22.30
2022-10-20T03:32:35.317Z,20.43
2022-10-20T03:35:02.054Z,21.07
2022-10-20T03:37:28.623Z,19.50
2022-10-20T03:39:55.156Z,20.90
2022-10-20T03:42:21.790Z,21.83
2022-10-20T03:44:48.385Z,22.50
2022-10-20T03:47:14.996Z,23.97
2022-10-20T03:49:41.634Z,19.40
2022-10-20T03:52:08.244Z,20.00
2022-10-20T03:54:36.677Z,23.77
2022-10-20T03:57:06.905Z,19.93
2022-10-20T03:59:34.660Z,24.40
2022-10-20T04:02:01.412Z,22.23
2022-10-20T04:04:28.188Z,20.33
2022-10-20T04:06:54.768Z,18.17
2022-10-20T04:09:21.396Z,21.17
2022-10-20T04:11:48.072Z,19.33
2022-10-20T04:14:14.646Z,19.67
2022-10-20T04:16:42.020Z,20.70
2022-10-20T04:19:08.582Z,20.77
2022-10-20T04:21:35.116Z,16.00
2022-10-20T04:24:01.803Z,21.33
2022-10-20T04:26:28.329Z,20.57
2022-10-20T04:28:56.942Z,20.10
2022-10-20T04:31:23.522Z,19.10
2022-10-20T04:33:50.055Z,21.50
2022-10-20T04:36:16.673Z,20.20
2022-10-20T04:38:43.242Z,20.27
2022-10-20T04:41:10.493Z,20.90
2022-10-20T04:43:37.098Z,16.77
2022-10-20T04:46:08.318Z,20.77
2022-10-20T04:48:36.195Z,19.70
2022-10-20T04:51:07.255Z,16.90
2022-10-20T04:53:34.411Z,18.13
2022-10-20T04:56:01.774Z,20.90
2022-10-20T04:58:28.689Z,15.53
2022-10-20T05:01:01.215Z,15.87
2022-10-20T05:03:27.799Z,16.77
2022-10-20T05:05:54.349Z,20.27
2022-10-20T05:08:20.885Z,18.10
2022-10-20T05:10:47.457Z,17.70
2022-10-20T05:13:14.035Z,20.90
2022-10-20T05:15:40.631Z,18.23
2022-10-20T05:18:07.348Z,20.87
2022-10-20T05:20:40.962Z,18.90
2022-10-20T05:23:07.943Z,21.87
2022-10-20T05:25:37.280Z,23.83
2022-10-20T05:28:05.198Z,22.93
2022-10-20T05:30:33.789Z,23.93
2022-10-20T05:33:00.338Z,21.67
2022-10-20T05:35:28.456Z,22.47
2022-10-20T05:37:55.366Z,21.07
2022-10-20T05:40:22.370Z,21.03
2022-10-20T05:42:49.078Z,22.47
2022-10-20T05:45:15.966Z,21.27
2022-10-20T05:47:45.321Z,21.30
2022-10-20T05:50:11.965Z,22.40
2022-10-20T05:52:38.831Z,21.40
2022-10-20T05:55:06.208Z,22.83
2022-10-20T05:57:32.736Z,19.67
2022-10-20T05:59:59.270Z,25.20
2022-10-20T06:02:25.825Z,19.60
2022-10-20T06:04:52.348Z,19.60
2022-10-20T06:07:18.887Z,23.23
2022-10-20T06:09:47.475Z,16.93
2022-10-20T06:12:14.044Z,21.33
2022-10-20T06:14:40.638Z,26.53
2022-10-20T06:17:07.207Z,20.90
2022-10-20T06:19:33.721Z,22.80
2022-10-20T06:22:03.957Z,21.07
2022-10-20T06:24:33.613Z,20.70
2022-10-20T06:27:00.156Z,25.33
2022-10-20T06:29:26.701Z,22.93
2022-10-20T06:31:55.098Z,22.33
2022-10-20T06:34:23.795Z,18.63
2022-10-20T06:36:50.962Z,21.63
2022-10-20T06:39:22.923Z,24.90
2022-10-20T06:41:51.716Z,25.93
2022-10-20T06:44:19.778Z,21.40
2022-10-20T06:46:46.355Z,26.57
2022-10-20T06:49:14.181Z,19.87
2022-10-20T06:51:41.358Z,30.17
2022-10-20T06:54:07.975Z,19.33
2022-10-20T06:56:36.114Z,19.87
2022-10-20T06:59:03.710Z,22.67
2022-10-20T07:01:33.183Z,25.53
2022-10-20T07:04:02.102Z,23.87
2022-10-20T07:06:33.274Z,19.07
2022-10-20T07:09:00.482Z,22.87
2022-10-20T07:11:29.183Z,17.10
2022-10-20T07:13:58.071Z,17.07
2022-10-20T07:16:26.806Z,20.43
2022-10-20T07:18:53.650Z,22.40
2022-10-20T07:21:22.814Z,21.77
2022-10-20T07:23:50.365Z,18.10
2022-10-20T07:26:19.713Z,20.70
2022-10-20T07:28:55.517Z,17.73
2022-10-20T07:31:46.578Z,18.73
2022-10-20T07:34:31.523Z,20.93
2022-10-20T07:36:58.212Z,16.47
2022-10-20T07:39:25.753Z,17.77
2022-10-20T07:41:52.700Z,17.73
2022-10-20T07:44:19.550Z,14.30
2022-10-20T07:46:46.493Z,17.43
2022-10-20T07:51:59.790Z,16.47
2022-10-20T07:54:26.356Z,17.67
2022-10-20T07:56:53.292Z,19.07
2022-10-20T07:59:19.852Z,14.83
2022-10-20T08:01:46.768Z,18.47
2022-10-20T08:04:13.409Z,13.67
2022-10-20T08:06:39.950Z,16.77
2022-10-20T08:09:07.312Z,18.63
2022-10-20T08:11:34.270Z,15.40
2022-10-20T08:14:00.863Z,19.47
2022-10-20T08:16:28.708Z,13.83
2022-10-20T08:19:05.599Z,15.30
2022-10-20T08:21:32.390Z,13.07
2022-10-20T08:23:59.079Z,13.47
2022-10-20T08:26:26.732Z,14.53
2022-10-20T08:28:54.745Z,15.67
2022-10-20T08:31:22.133Z,17.20
2022-10-20T08:33:52.677Z,13.00
2022-10-20T08:36:20.561Z,11.07
2022-10-20T08:38:47.493Z,15.07
2022-10-20T08:41:21.356Z,17.53
2022-10-20T08:43:50.858Z,12.23
2022-10-20T08:46:22.915Z,9.47
2022-10-20T08:48:50.165Z,10.97
2022-10-20T08:51:31.323Z,12.93
2022-10-20T08:53:59.877Z,13.27
2022-10-20T08:56:30.095Z,11.30
2022-10-20T08:58:57.068Z,15.77
2022-10-20T09:01:26.651Z,11.03
2022-10-20T09:03:59.579Z,16.13
2022-10-20T09:06:26.377Z,17.83
2022-10-20T09:08:54.539Z,12.47
2022-10-20T09:11:34.534Z,15.50
2022-10-20T09:14:01.111Z,13.33
2022-10-20T09:16:42.248Z,13.70
2022-10-20T09:19:23.228Z,10.63
2022-10-20T09:21:53.150Z,13.00
2022-10-20T09:24:22.299Z,13.70
2022-10-20T09:26:59.665Z,16.10
2022-10-20T09:29:38.641Z,13.27
2022-10-20T09:32:51.879Z,11.47
2022-10-20T09:35:31.750Z,11.67
2022-10-20T09:38:24.834Z,14.70
2022-10-20T09:41:14.840Z,13.97
2022-10-20T09:44:07.766Z,13.10
2022-10-20T09:46:50.530Z,15.97
2022-10-20T09:49:31.153Z,18.93
2022-10-20T09:51:59.699Z,17.53
2022-10-20T09:54:27.938Z,15.33
2022-10-20T09:57:05.248Z,12.53
2022-10-20T09:59:38.268Z,11.40
2022-10-20T10:02:27.229Z,21.37
2022-10-20T10:05:05.274Z,17.63
2022-10-20T10:07:32.258Z,14.27
2022-10-20T10:10:05.701Z,13.20
2022-10-20T10:12:35.975Z,14.23
2022-10-20T10:15:23.170Z,12.47
2022-10-20T10:17:50.751Z,12.13
2022-10-20T10:20:17.251Z,11.80
2022-10-20T10:22:44.477Z,11.60
2022-10-20T10:25:22.082Z,15.43
2022-10-20T10:28:24.218Z,18.53
2022-10-20T10:31:07.011Z,14.47
2022-10-20T10:33:33.674Z,11.93
2022-10-20T10:36:05.905Z,17.90
2022-10-20T10:38:32.454Z,12.90
2022-10-20T10:41:35.558Z,16.43
2022-10-20T10:44:14.124Z,12.90
2022-10-20T10:49:33.152Z,12.03
2022-10-20T10:52:15.973Z,15.03
2022-10-20T10:54:55.369Z,16.93
2022-10-20T10:57:43.944Z,22.50
2022-10-20T11:00:21.879Z,20.00
2022-10-20T11:02:48.364Z,19.13
2022-10-20T11:05:26.802Z,20.17
2022-10-20T11:08:08.382Z,17.77
2022-10-20T11:11:01.209Z,16.23
2022-10-20T11:13:30.718Z,20.93
2022-10-20T11:16:05.604Z,17.10
2022-10-20T11:18:54.418Z,18.80
2022-10-20T11:21:33.939Z,22.20
2022-10-20T11:24:24.670Z,20.97
2022-10-20T11:26:56.518Z,19.50
2022-10-20T11:29:37.873Z,24.60
2022-10-20T11:32:15.845Z,19.03
2022-10-20T11:35:04.092Z,26.00
2022-10-20T11:37:37.905Z,21.90
2022-10-20T11:40:10.551Z,22.40
2022-10-20T11:43:08.706Z,25.30
2022-10-20T11:45:56.088Z,28.90
2022-10-20T11:48:31.839Z,24.03
2022-10-20T11:51:20.306Z,27.37
2022-10-20T11:54:01.310Z,23.67
2022-10-20T11:57:05.425Z,26.60
2022-10-20T11:59:54.118Z,28.07
2022-10-20T12:02:48.336Z,30.23
2022-10-20T12:05:43.058Z,19.47
2022-10-20T12:08:30.214Z,24.17
2022-10-20T12:11:32.388Z,17.07
2022-10-20T12:14:08.085Z,20.13
2022-10-20T12:17:05.922Z,16.23
2022-10-20T12:19:34.513Z,17.43
2022-10-20T12:22:14.671Z,15.90
2022-10-20T12:24:54.602Z,13.47
2022-10-20T12:27:27.615Z,12.60
2022-10-20T12:30:23.814Z,16.13
2022-10-20T12:33:15.241Z,17.60
2022-10-20T12:36:18.699Z,14.67
2022-10-20T12:38:52.896Z,14.80
2022-10-20T12:41:29.006Z,14.33
2022-10-20T12:44:01.778Z,11.40
2022-10-20T12:46:31.420Z,12.83
2022-10-20T12:49:10.978Z,15.90
2022-10-20T12:51:53.578Z,11.63
2022-10-20T12:54:20.130Z,13.33
2022-10-20T12:56:47.103Z,10.30
2022-10-20T12:59:28.696Z,14.23
2022-10-20T13:02:10.583Z,12.60
2022-10-20T13:05:09.710Z,11.70
2022-10-20T13:07:48.200Z,16.07
2022-10-20T13:10:35.387Z,11.37
2022-10-20T13:13:01.873Z,14.70
2022-10-20T13:15:43.668Z,15.73
2022-10-20T13:18:13.206Z,16.23
2022-10-20T13:21:07.702Z,21.13
2022-10-20T13:23:39.835Z,10.73
2022-10-20T13:26:26.606Z,11.50
2022-10-20T13:28:59.923Z,10.17
2022-10-20T13:31:39.653Z,10.77
2022-10-20T13:34:24.856Z,7.97
2022-10-20T13:37:21.672Z,8.88
2022-10-20T13:40:38.267Z,10.50
2022-10-20T13:43:16.593Z,10.00
2022-10-20T13:45:49.113Z,8.45
2022-10-20T13:48:40.246Z,9.82
2022-10-20T13:51:23.905Z,11.23
2022-10-20T13:53:56.050Z,9.23
2022-10-20T13:56:37.638Z,9.90
2022-10-20T13:59:26.324Z,8.50
2022-10-20T14:02:01.671Z,10.18
2022-10-20T14:04:32.034Z,8.43
2022-10-20T14:07:16.428Z,11.20
2022-10-20T14:09:46.647Z,11.15
2022-10-20T14:12:26.299Z,9.02
2022-10-20T14:15:00.750Z,8.25
2022-10-20T14:17:28.558Z,13.07
2022-10-20T14:20:20.898Z,12.13
2022-10-20T14:22:47.970Z,11.63
2022-10-20T14:25:15.277Z,7.30
2022-10-20T14:27:42.691Z,10.43
2022-10-20T14:30:16.554Z,13.30
2022-10-20T14:32:45.241Z,8.30
2022-10-20T14:35:18.786Z,9.02
2022-10-20T14:37:52.895Z,9.07
2022-10-20T14:40:23.443Z,9.30
2022-10-20T14:42:50.678Z,6.85
2022-10-20T14:45:23.849Z,7.25
2022-10-20T14:47:52.238Z,12.48
2022-10-20T14:50:33.654Z,12.30
2022-10-20T14:53:22.188Z,10.50
2022-10-20T14:55:48.796Z,11.88
2022-10-20T14:58:37.411Z,8.68
2022-10-20T15:01:21.119Z,11.00
2022-10-20T15:04:02.210Z,12.38
2022-10-20T15:06:28.979Z,13.65
2022-10-20T15:08:57.766Z,11.63
2022-10-20T15:11:26.582Z,10.05
2022-10-20T15:13:55.075Z,10.02
2022-10-20T15:16:43.428Z,12.35
2022-10-20T15:19:31.391Z,10.85
2022-10-20T15:22:08.770Z,9.25
2022-10-20T15:24:35.486Z,9.43
2022-10-20T15:27:02.941Z,13.00
2022-10-20T15:29:30.654Z,11.38
2022-10-20T15:31:57.288Z,14.65
2022-10-20T15:34:24.142Z,8.50
2022-10-20T15:36:51.192Z,16.83
2022-10-20T15:39:18.081Z,13.77
2022-10-20T15:41:44.846Z,9.60
2022-10-20T15:44:23.993Z,17.13
2022-10-20T15:46:53.412Z,13.17
2022-10-20T15:49:20.529Z,11.27
2022-10-20T15:51:47.844Z,16.23
2022-10-20T15:54:16.935Z,10.07
2022-10-20T15:56:44.132Z,13.70
2022-10-20T15:59:10.956Z,16.40
2022-10-20T16:01:37.966Z,9.73
2022-10-20T16:04:26.176Z,13.90
2022-10-20T16:06:57.699Z,13.10
2022-10-20T16:09:24.556Z,9.63
2022-10-20T16:11:51.431Z,9.93
2022-10-20T16:14:17.978Z,12.43
2022-10-20T16:16:47.227Z,11.83
2022-10-20T16:19:13.862Z,12.33
2022-10-20T16:21:41.234Z,19.23
2022-10-20T16:24:07.866Z,15.67
2022-10-20T16:26:34.510Z,12.30
2022-10-20T16:29:01.065Z,18.90
2022-10-20T16:31:28.625Z,12.00
2022-10-20T16:33:55.172Z,15.93
2022-10-20T16:36:21.760Z,13.83
2022-10-20T16:38:48.578Z,16.13
2022-10-20T16:41:15.791Z,14.03
2022-10-20T16:43:45.206Z,21.97
2022-10-20T16:46:14.273Z,18.80
2022-10-20T16:48:42.753Z,14.73
2022-10-20T16:51:12.842Z,14.67
2022-10-20T16:53:39.428Z,13.03
2022-10-20T16:56:07.130Z,22.97
2022-10-20T16:58:33.719Z,19.47
2022-10-20T17:01:12.783Z,17.83
2022-10-20T17:03:44.913Z,22.40
2022-10-20T17:06:13.234Z,15.53
2022-10-20T17:08:40.518Z,16.73
2022-10-20T17:11:09.305Z,13.80
2022-10-20T17:13:37.078Z,20.83
2022-10-20T17:16:11.254Z,22.60
2022-10-20T17:18:37.901Z,22.43
2022-10-20T17:21:05.517Z,20.67
2022-10-20T17:23:37.313Z,16.83
2022-10-20T17:26:08.078Z,18.23
2022-10-20T17:28:36.380Z,16.53
2022-10-20T17:31:05.668Z,20.07
2022-10-20T17:33:33.071Z,14.73
2022-10-20T17:36:01.051Z,17.17
2022-10-20T17:38:29.410Z,18.17
2022-10-20T17:40:56.307Z,13.40
2022-10-20T17:43:23.674Z,20.40
2022-10-20T17:46:01.333Z,13.03
2022-10-20T17:48:28.311Z,18.33
2022-10-20T17:51:02.659Z,16.73
2022-10-20T17:53:31.734Z,11.90
2022-10-20T17:56:03.141Z,15.07
2022-10-20T17:58:29.784Z,16.83
2022-10-20T18:01:12.440Z,18.60
2022-10-20T18:03:40.098Z,13.73
2022-10-20T18:06:18.835Z,28.50
2022-10-20T18:08:46.202Z,16.87
2022-10-20T18:11:15.236Z,13.10
2022-10-20T18:13:41.843Z,12.93
2022-10-20T18:16:10.341Z,17.00
2022-10-20T18:18:37.735Z,15.67
2022-10-20T18:21:05.383Z,16.10
2022-10-20T18:23:33.319Z,16.93
2022-10-20T18:26:12.131Z,11.93
2022-10-20T18:28:40.269Z,19.27
2022-10-20T18:31:11.748Z,17.90
2022-10-20T18:33:38.295Z,12.87
2022-10-20T18:36:10.015Z,20.63
2022-10-20T18:38:38.496Z,15.57
2022-10-20T18:41:10.863Z,15.43
2022-10-20T18:43:38.169Z,14.10
2022-10-20T18:46:06.678Z,21.83
2022-10-20T18:48:36.684Z,14.57
2022-10-20T18:51:04.371Z,18.33
2022-10-20T18:53:32.139Z,16.93
2022-10-20T18:56:04.285Z,20.60
2022-10-20T18:58:32.900Z,20.20
2022-10-20T19:01:02.490Z,15.73
2022-10-20T19:03:31.471Z,27.47
2022-10-20T19:05:59.781Z,19.53
2022-10-20T19:08:26.588Z,18.37
2022-10-20T19:10:53.336Z,16.67
2022-10-20T19:13:20.019Z,17.73
2022-10-20T19:15:46.920Z,17.67
2022-10-20T19:18:13.450Z,17.80
2022-10-20T19:20:39.982Z,19.40
2022-10-20T19:23:06.538Z,21.13
2022-10-20T19:25:33.402Z,17.77
2022-10-20T19:28:00.003Z,16.77
2022-10-20T19:30:26.556Z,19.27
2022-10-20T19:32:54.806Z,19.87
2022-10-20T19:35:21.887Z,21.47
2022-10-20T19:37:48.448Z,19.23
2022-10-20T19:40:15.127Z,21.00
2022-10-20T19:42:41.806Z,17.30
2022-10-20T19:45:08.524Z,22.23
2022-10-20T19:47:35.046Z,18.50
2022-10-20T19:50:01.731Z,19.43
2022-10-20T19:52:28.315Z,18.77
2022-10-20T19:54:54.846Z,19.73
2022-10-20T19:57:21.428Z,23.60
2022-10-20T19:59:48.102Z,28.17
2022-10-20T20:02:14.637Z,23.53
2022-10-20T20:04:41.282Z,21.43
2022-10-20T20:07:07.877Z,22.37
2022-10-20T20:09:34.469Z,20.73
2022-10-20T20:12:01.241Z,18.93
2022-10-20T20:14:28.075Z,23.87
2022-10-20T20:16:54.827Z,18.60
2022-10-20T20:19:21.378Z,24.30
2022-10-20T20:21:47.958Z,23.33
2022-10-20T20:24:14.660Z,26.43
2022-10-20T20:26:41.334Z,23.87
2022-10-20T20:29:07.955Z,20.20
2022-10-20T20:31:34.541Z,20.27
2022-10-20T20:34:01.250Z,20.80
2022-10-20T20:36:28.265Z,20.73
2022-10-20T20:38:59.992Z,26.73
2022-10-20T20:41:29.954Z,28.17
2022-10-20T20:43:56.596Z,22.03
2022-10-20T20:46:24.691Z,23.47
2022-10-20T20:48:51.358Z,30.10
2022-10-20T20:51:18.802Z,23.97
2022-10-20T20:53:45.393Z,26.70
2022-10-20T20:56:14.730Z,23.53
2022-10-20T20:58:42.233Z,30.67
2022-10-20T21:01:13.052Z,35.80
2022-10-20T21:03:40.370Z,25.50
2022-10-20T21:06:17.538Z,27.90
2022-10-20T21:08:48.557Z,29.43
2022-10-20T21:11:20.587Z,19.07
2022-10-20T21:13:48.781Z,28.20
2022-10-20T21:16:19.488Z,18.97
2022-10-20T21:18:48.099Z,24.00
2022-10-20T21:21:20.351Z,27.87
2022-10-20T21:23:47.048Z,22.17
2022-10-20T21:26:15.419Z,24.33
2022-10-20T21:28:42.966Z,28.47
2022-10-20T21:31:12.297Z,24.07
2022-10-20T21:33:39.369Z,34.83
2022-10-20T21:36:08.869Z,26.97
2022-10-20T21:38:36.679Z,29.53
2022-10-20T21:41:15.009Z,22.27
2022-10-20T21:43:44.706Z,26.27
2022-10-20T21:46:15.575Z,29.87
2022-10-20T21:48:43.559Z,22.17
2022-10-20T21:51:12.930Z,18.57
2022-10-20T21:53:39.593Z,20.80
2022-10-20T21:56:07.276Z,15.10
2022-10-20T21:58:35.108Z,17.33
2022-10-20T22:01:15.688Z,17.20
2022-10-20T22:03:43.466Z,22.83
2022-10-20T22:06:11.794Z,21.50
2022-10-20T22:08:40.272Z,32.47
2022-10-20T22:11:10.654Z,22.83
2022-10-20T22:13:37.913Z,20.17
2022-10-20T22:16:09.756Z,22.33
2022-10-20T22:18:36.285Z,21.13
2022-10-20T22:21:11.181Z,21.70
2022-10-20T22:23:41.371Z,25.53
2022-10-20T22:26:08.660Z,25.40
2022-10-20T22:28:35.502Z,20.90
2022-10-20T22:33:29.107Z,29.57
2022-10-20T22:35:55.796Z,27.57
2022-10-20T22:38:22.341Z,23.00
2022-10-20T22:40:48.879Z,24.40
2022-10-20T22:43:15.458Z,29.13
2022-10-20T22:45:42.016Z,24.63
2022-10-20T22:48:08.570Z,19.63
2022-10-20T22:50:35.144Z,26.33
2022-10-20T22:53:01.697Z,22.87
2022-10-20T22:55:28.265Z,22.90
2022-10-20T22:57:54.871Z,33.40
2022-10-20T23:00:21.530Z,22.97
2022-10-20T23:02:48.190Z,25.20
2022-10-20T23:05:14.830Z,24.37
2022-10-20T23:07:41.556Z,26.20
2022-10-20T23:10:08.502Z,27.27
2022-10-20T23:12:35.441Z,29.17
2022-10-20T23:15:02.339Z,28.53
2022-10-20T23:17:29.038Z,29.20
2022-10-20T23:19:55.610Z,28.73
2022-10-20T23:22:22.203Z,32.53
2022-10-20T23:24:48.786Z,30.27
2022-10-20T23:27:15.393Z,22.63
2022-10-20T23:29:41.957Z,27.63
2022-10-20T23:32:08.500Z,24.37
2022-10-20T23:37:06.489Z,29.97
2022-10-20T23:39:33.038Z,22.63
2022-10-20T23:42:03.434Z,25.73
2022-10-20T23:44:33.651Z,26.10
2022-10-20T23:47:00.186Z,22.03
2022-10-20T23:49:26.737Z,31.53
2022-10-20T23:51:53.307Z,26.83
2022-10-20T23:54:19.929Z,26.43
2022-10-20T23:56:46.552Z,28.60
2022-10-20T23:59:13.168Z,24.10
